Terminal Aerodrome Forecast
Issued by NWS Duluth, MN

Home | Current Version | Previous Version | Text Only | Print | Product List | Glossary On
Versions: 1 2 3 4 5 6 7 8 9 10 11 12 13 14 15 16 17 18 19 20 21 22 23 24 25
000
FTUS43 KDLH 181142
TAFINL
TAF
KINL 181142Z 1812/1912 00000KT 1 1/2SM BR OVC150
     FM181300 VRB03KT 2SM BR OVC150
     FM181500 30006KT P6SM SCT130
     FM182100 31006KT P6SM VCTS BKN130CB
     FM182300 30006KT P6SM SCT130
     FM191000 00000KT 4SM BR SKC=

USA.gov is the U.S. government's official web portal to all federal, state and local government web resources and services.